Latest Weather Observations for Portland Airport

IDV60801

Issued at 9:02 am EDT Tuesday 27 October 2020 (issued every 10 minutes, with the page automatically refreshed every 10 minutes)

About weather observations | Map of weather stations | Latest weather observations for VIC | Other Formats
Station Details ID: 090171 Name: CASHMORE AIRPORT Lat: -38.31 Lon: 141.47 Height: 80.9 m
Data from the previous 72 hours. | See also: Recent months at Portland Airport
Date/Time
EDT
Temp
°C
App
Temp
°C
Dew
Point
°C
Rel
Hum
%
Delta-T
°C
Wind Press
QNH
hPa
Press
MSL
hPa
Rain since
9am
mm
Dir  Spd
km/h
Gust
km/h
Spd
kts
Gust
kts
27/09:00am 12.4 6.1 7.3 71 2.5 E 30 44 16 24 1024.2 1024.3 0.0
27/08:30am 12.3 6.4 7.4 72 2.4 E 28 41 15 22 1023.9 1024.0 0.0
27/08:00am 11.7 4.9 7.0 73 2.2 E 32 43 17 23 1023.8 1023.9 0.0
27/07:30am 11.1 5.5 7.0 76 2.0 E 26 37 14 20 1024.0 1024.1 0.0
27/07:00am 10.9 4.8 6.6 75 2.0 E 28 39 15 21 1023.6 1023.7 0.0
27/06:30am 10.8 5.1 6.6 75 2.0 E 26 35 14 19 1023.5 1023.6 0.0
27/06:00am 10.6 4.5 6.6 76 1.9 E 28 39 15 21 1023.4 1023.5 0.0
27/05:30am 10.8 4.6 6.2 73 2.2 E 28 43 15 23 1023.3 1023.4 0.0
27/05:00am 11.0 4.4 6.0 71 2.3 E 30 44 16 24 1023.3 1023.4 0.0
27/04:30am 11.2 4.6 5.9 70 2.5 E 30 48 16 26 1023.3 1023.4 0.0
27/04:26am 11.2 4.6 5.9 70 2.5 E 30 48 16 26 1023.3 1023.4 0.0
27/04:00am 11.1 5.7 6.3 72 2.2 E 24 35 13 19 1023.4 1023.5 0.0
27/03:30am 11.2 5.3 5.9 70 2.5 E 26 37 14 20 1023.5 1023.6 0.0
27/03:00am 11.4 5.5 5.7 68 2.6 E 26 39 14 21 1023.6 1023.7 0.0
27/02:30am 11.5 4.8 5.8 68 2.7 E 30 43 16 23 1023.7 1023.8 0.0
27/02:00am 11.5 5.2 5.8 68 2.6 E 28 43 15 23 1023.9 1024.0 0.0
27/01:35am 11.6 5.3 5.9 68 2.7 E 28 54 15 29 1024.2 1024.3 0.0
27/01:30am 11.4 5.5 5.9 69 2.6 E 26 39 14 21 1024.3 1024.4 0.0
27/01:00am 11.8 4.8 6.1 68 2.7 E 32 48 17 26 1024.5 1024.6 0.0
27/12:57am 11.8 5.2 6.1 68 2.7 E 30 48 16 26 1024.5 1024.6 0.0
27/12:30am 11.8 6.9 6.9 72 2.3 E 22 35 12 19 1024.6 1024.7 0.0
27/12:00am 11.9 5.9 7.0 72 2.3 E 28 37 15 20 1024.8 1024.9 0.0
 
Date/Time
EDT
Temp
°C
App
Temp
°C
Dew
Point
°C
Rel
Hum
%
Delta-T
°C
Wind Press
QNH
hPa
Press
MSL
hPa
Rain since
9am
mm
Dir  Spd
km/h
Gust
km/h
Spd
kts
Gust
kts
26/11:30pm 11.7 6.9 7.2 74 2.2 E 22 35 12 19 1025.0 1025.1 0.0
26/11:00pm 11.5 7.1 7.2 75 2.1 ESE 20 35 11 19 1025.3 1025.3 0.0
26/10:30pm 11.6 6.8 7.3 75 2.1 NNE 22 35 12 19 1025.5 1025.5 0.0
26/10:00pm 11.6 6.7 6.9 73 2.2 NNE 22 39 12 21 1025.5 1025.5 0.0
26/09:30pm 11.6 7.0 6.7 72 2.3 NNE 20 33 11 18 1025.4 1025.4 0.0
26/09:00pm 11.7 6.4 6.6 71 2.4 NNE 24 41 13 22 1025.0 1025.1 0.0
26/08:30pm 11.7 6.4 6.8 72 2.3 NNE 24 39 13 21 1024.7 1024.8 0.0
26/08:01pm 12.0 6.0 7.1 72 2.4 ENE 28 48 15 26 1024.4 1024.5 0.0
26/08:00pm 12.0 6.0 7.1 72 2.3 ENE 28 48 15 26 1024.4 1024.5 0.0
26/07:49pm 12.0 6.3 6.9 71 2.4 SSE 26 46 14 25 1024.4 1024.5 0.0
26/07:30pm 12.3 7.1 7.4 72 2.4 ESE 24 41 13 22 1024.4 1024.5 0.0
26/07:00pm 12.7 6.7 7.2 69 2.7 ESE 28 48 15 26 1024.3 1024.4 0.0
26/06:30pm 13.0 7.0 7.0 67 2.9 ESE 28 46 15 25 1024.2 1024.3 0.0
26/06:00pm 13.2 6.5 7.2 67 2.9 ESE 32 54 17 29 1024.2 1024.3 0.0
26/05:30pm 12.8 5.8 6.8 67 2.9 ESE 33 54 18 29 1024.2 1024.3 0.0
26/05:00pm 13.8 7.5 7.6 66 3.0 ESE 30 48 16 26 1024.0 1024.1 0.0
26/04:30pm 13.5 7.1 6.8 64 3.2 ESE 30 56 16 30 1024.0 1024.1 0.0
26/04:00pm 14.3 7.1 7.8 65 3.2 ESE 35 59 19 32 1024.3 1024.4 0.0
26/03:30pm 14.6 8.0 7.6 63 3.5 ESE 32 56 17 30 1024.3 1024.4 0.0
26/03:00pm 14.1 6.1 5.5 56 4.0 ESE 37 61 20 33 1024.5 1024.6 0.0
26/02:30pm 14.5 7.4 6.6 59 3.8 ESE 33 57 18 31 1024.8 1024.9 0.0
26/02:00pm 14.8 8.2 7.8 63 3.5 ESE 32 56 17 30 1024.9 1025.0 0.0
26/01:30pm 14.2 7.5 7.5 64 3.3 ESE 32 50 17 27 1025.0 1025.1 0.0
26/01:07pm 14.8 8.5 5.9 55 4.3 ESE 28 46 15 25 1025.3 1025.3 0.0
26/01:00pm 14.1 7.8 5.7 57 4.0 ESE 28 44 15 24 1025.4 1025.4 0.0
26/12:30pm 13.7 6.5 4.8 55 4.1 ESE 32 57 17 31 1025.7 1025.7 0.0
26/12:00pm 13.1 6.2 4.5 56 3.9 E 30 48 16 26 1026.0 1026.0 0.0
26/11:30am 13.7 7.0 5.8 59 3.8 E 30 50 16 27 1026.4 1026.4 0.0
26/11:00am 13.6 6.5 5.7 59 3.7 E 32 50 17 27 1026.5 1026.5 0.0
26/10:30am 13.0 6.3 5.7 61 3.4 ESE 30 48 16 26 1026.6 1026.6 0.0
26/10:04am 13.2 6.5 5.4 59 3.7 E 30 48 16 26 1026.5 1026.5 0.0
26/10:00am 13.3 6.4 4.7 56 4.0 E 30 46 16 25 1026.5 1026.5 0.0
26/09:30am 12.7 6.2 4.7 58 3.7 ESE 28 46 15 25 1026.5 1026.5 0.0
26/09:13am 12.9 6.2 3.8 54 4.1 ESE 28 46 15 25 1026.4 1026.4 0.0
26/09:00am 12.3 6.0 3.8 56 3.8 ESE 26 41 14 22 1026.5 1026.5 0.2
26/08:32am 12.6 6.0 4.1 56 3.9 ESE 28 46 15 25 1026.3 1026.3 0.2
26/08:30am 12.6 6.4 4.1 56 3.9 ESE 26 46 14 25 1026.3 1026.3 0.2
26/08:25am 12.2 5.5 3.7 56 3.8 ESE 28 48 15 26 1026.2 1026.2 0.2
26/08:00am 12.1 6.2 4.1 58 3.6 ESE 24 39 13 21 1026.1 1026.1 0.2
26/07:30am 11.2 6.2 4.4 63 3.1 E 20 35 11 19 1026.0 1026.0 0.2
26/07:00am 10.8 5.5 4.9 67 2.7 E 22 35 12 19 1025.8 1025.8 0.2
26/06:30am 10.8 5.4 4.5 65 2.8 E 22 35 12 19 1025.6 1025.6 0.2
26/06:00am 10.9 5.0 3.9 62 3.1 ESE 24 44 13 24 1025.4 1025.4 0.2
26/05:30am 10.7 5.5 5.3 69 2.5 ESE 22 35 12 19 1025.3 1025.3 0.2
26/05:00am 10.5 5.2 5.1 69 2.4 ESE 22 33 12 18 1025.0 1025.1 0.2
26/04:30am 10.2 4.3 4.1 66 2.7 ESE 24 35 13 19 1025.0 1025.1 0.2
26/04:00am 9.9 4.4 3.9 66 2.6 ESE 22 30 12 16 1025.0 1025.1 0.2
26/03:30am 10.1 4.3 4.5 68 2.5 ESE 24 32 13 17 1025.4 1025.4 0.2
26/03:00am 9.8 4.2 3.5 65 2.7 ESE 22 32 12 17 1025.6 1025.6 0.2
26/02:30am 10.3 4.8 3.8 64 2.9 ESE 22 37 12 20 1025.9 1025.9 0.2
26/02:00am 9.9 4.3 3.4 64 2.8 ESE 22 33 12 18 1026.1 1026.1 0.2
26/01:30am 9.8 4.5 3.1 63 2.9 ESE 20 33 11 18 1026.3 1026.3 0.2
26/01:00am 9.8 4.6 2.6 61 3.1 ESE 19 32 10 17 1026.5 1026.5 0.2
26/12:30am 10.1 4.8 2.9 61 3.1 ESE 20 33 11 18 1026.6 1026.6 0.2
26/12:00am 10.2 4.6 3.7 64 2.8 ESE 22 41 12 22 1026.7 1026.7 0.2
 
Date/Time
EDT
Temp
°C
App
Temp
°C
Dew
Point
°C
Rel
Hum
%
Delta-T
°C
Wind Press
QNH
hPa
Press
MSL
hPa
Rain since
9am
mm
Dir  Spd
km/h
Gust
km/h
Spd
kts
Gust
kts
25/11:30pm 9.9 4.7 3.4 64 2.8 ESE 20 32 11 17 1026.7 1026.7 0.2
25/11:00pm 9.4 4.9 4.0 69 2.4 ESE 17 28 9 15 1026.9 1026.9 0.2
25/10:30pm 9.4 4.1 3.2 65 2.7 ESE 20 33 11 18 1026.9 1026.9 0.2
25/10:00pm 8.8 3.7 4.2 73 2.0 ESE 20 30 11 16 1026.9 1026.9 0.2
25/09:30pm 9.6 3.5 5.0 73 2.1 ESE 26 35 14 19 1026.8 1026.8 0.2
25/09:00pm 9.4 3.3 4.6 72 2.1 ESE 26 43 14 23 1026.4 1026.4 0.2
25/08:30pm 10.0 3.9 2.8 61 3.1 ESE 24 37 13 20 1026.1 1026.1 0.0
25/08:00pm 10.1 2.7 2.0 57 3.4 ESE 30 43 16 23 1025.9 1025.9 0.0
25/07:30pm 9.7 3.8 3.7 66 2.6 SE 24 35 13 19 1025.6 1025.6 0.0
25/07:00pm 10.3 3.6 3.6 63 2.9 SE 28 43 15 23 1025.5 1025.5 0.0
25/06:44pm 10.7 3.4 4.4 65 2.8 SE 32 50 17 27 1025.4 1025.4 0.0
25/06:30pm 10.7 5.1 3.7 62 3.1 SE 22 37 12 20 1025.3 1025.3 0.0
25/06:00pm 10.8 3.2 4.0 63 3.0 SE 33 52 18 28 1025.2 1025.2 0.0
25/05:37pm 11.3 4.6 3.8 60 3.3 SE 28 46 15 25 1024.9 1025.0 0.0
25/05:30pm 11.0 3.6 4.0 62 3.1 SE 32 44 17 24 1024.9 1025.0 0.0
25/05:00pm 11.3 4.3 4.1 61 3.2 SE 30 46 16 25 1024.8 1024.9 0.0
25/04:36pm 10.5 4.0 4.6 67 2.7 SE 28 52 15 28 1024.8 1024.9 0.0
25/04:30pm 12.3 6.5 4.3 58 3.6 SE 24 43 13 23 1024.7 1024.8 0.0
25/04:05pm 11.0 4.2 3.3 59 3.4 SE 28 52 15 28 1024.8 1024.9 0.0
25/04:00pm 11.7 5.1 4.0 59 3.4 SE 28 43 15 23 1024.8 1024.9 0.0
25/03:43pm 10.7 3.9 3.0 59 3.4 SE 28 48 15 26 1025.0 1025.1 0.0
25/03:30pm 12.4 4.9 3.6 55 3.9 SE 32 46 17 25 1024.9 1025.0 0.0
25/03:05pm 10.9 3.3 2.7 57 3.6 SE 32 50 17 27 1025.0 1025.1 0.0
25/03:00pm 10.9 3.5 4.1 63 3.0 SE 32 48 17 26 1025.0 1025.1 0.0
25/02:52pm 11.2 4.0 2.8 56 3.7 SE 30 48 16 26 1025.0 1025.1 0.0
25/02:30pm 11.4 5.6 4.6 63 3.1 SE 24 35 13 19 1025.2 1025.2 0.0
25/02:00pm 11.2 4.3 2.5 55 3.7 SE 28 46 15 25 1025.3 1025.3 0.0
25/01:30pm 12.6 5.6 4.1 56 3.9 SE 30 44 16 24 1025.2 1025.2 0.0
25/01:06pm 12.0 4.6 1.9 50 4.3 SE 30 50 16 27 1025.3 1025.3 0.0
25/01:00pm 11.9 4.1 2.9 54 3.9 SE 33 46 18 25 1025.4 1025.4 0.0
25/12:30pm 12.0 5.0 4.0 58 3.6 SE 30 43 16 23 1025.3 1025.3 0.0
25/12:10pm 9.8 2.3 3.3 64 2.8 SE 32 50 17 27 1025.7 1025.7 0.0
25/12:00pm 11.0 2.8 2.6 56 3.6 SE 35 50 19 27 1025.6 1025.6 0.0
25/11:51am 11.6 4.7 2.6 54 3.9 SE 28 50 15 27 1025.4 1025.4 0.0
25/11:30am 11.7 4.5 3.2 56 3.8 SE 30 43 16 23 1025.5 1025.5 0.0
25/11:09am 10.9 3.0 2.2 55 3.7 SE 33 54 18 29 1025.5 1025.5 0.0
25/11:00am 11.1 3.3 2.9 57 3.6 SE 33 46 18 25 1025.4 1025.4 0.0
25/10:47am 10.6 3.5 1.4 53 3.9 SE 28 46 15 25 1025.4 1025.4 0.0
25/10:30am 10.6 3.6 2.2 56 3.6 SSE 28 41 15 22 1025.3 1025.3 0.0
25/10:06am 9.6 2.6 2.0 59 3.2 SSE 28 46 15 25 1025.2 1025.2 0.0
25/10:00am 10.5 4.3 2.1 56 3.6 SE 24 37 13 20 1025.0 1025.1 0.0
25/09:30am 9.8 3.4 0.7 53 3.7 SE 24 35 13 19 1024.7 1024.8 0.0
25/09:00am 10.8 4.5 1.4 52 3.9 SSE 24 41 13 22 1024.1 1024.2 1.2
25/08:30am 10.0 6.3 4.2 67 2.6 SSE 13 22 7 12 1023.7 1023.8 1.2
25/08:00am 7.6 -0.1 2.3 69 2.2 SE 32 52 17 28 1023.6 1023.7 1.2
25/07:55am 7.5 0.5 1.8 67 2.3 SE 28 52 15 28 1023.5 1023.6 1.2
25/07:30am 9.0 2.8 -0.1 53 3.6 SE 22 37 12 20 1022.6 1022.7 1.2
25/07:00am 8.8 3.2 1.5 60 3.0 SE 20 30 11 16 1022.2 1022.2 1.2
25/06:30am 8.7 3.2 0.9 58 3.2 SSE 19 32 10 17 1021.8 1021.8 1.2
25/06:00am 8.1 3.0 0.8 60 2.9 SSE 17 28 9 15 1021.3 1021.3 1.2
25/05:34am 8.1 0.8 0.3 58 3.1 SSE 28 46 15 25 1021.2 1021.2 1.2
25/05:30am 8.2 1.4 0.9 60 3.0 SSE 26 43 14 23 1021.1 1021.1 1.2
25/05:00am 8.7 3.3 1.1 59 3.1 SSE 19 30 10 16 1020.6 1020.6 1.2
25/04:30am 8.4 2.5 1.6 62 2.8 SSE 22 35 12 19 1020.3 1020.3 1.2
25/04:00am 8.3 3.1 0.3 57 3.2 SE 17 28 9 15 1019.8 1019.8 1.2
25/03:30am 8.3 2.6 -0.4 54 3.4 SSE 19 32 10 17 1019.6 1019.6 1.2
25/03:00am 8.4 2.6 -0.1 55 3.4 SSE 20 37 11 20 1019.5 1019.5 1.2
25/02:30am 8.4 2.3 0.6 58 3.1 SSE 22 33 12 18 1019.3 1019.3 1.2
25/02:00am 8.9 4.1 2.7 65 2.6 SSE 17 30 9 16 1019.2 1019.2 1.2
25/01:30am 9.2 3.3 1.9 60 3.1 SSE 22 35 12 19 1019.0 1019.0 1.2
25/01:00am 8.8 3.7 4.2 73 2.0 SSE 20 32 11 17 1018.9 1018.9 1.2
25/12:30am 8.4 4.2 4.0 74 1.9 SSE 15 24 8 13 1018.7 1018.7 1.2
25/12:00am 8.3 3.2 4.3 76 1.8 SSE 20 35 11 19 1018.4 1018.4 1.0
 
Date/Time
EDT
Temp
°C
App
Temp
°C
Dew
Point
°C
Rel
Hum
%
Delta-T
°C
Wind Press
QNH
hPa
Press
MSL
hPa
Rain since
9am
mm
Dir  Spd
km/h
Gust
km/h
Spd
kts
Gust
kts
24/11:30pm 8.5 4.3 5.6 82 1.3 SSE 17 28 9 15 1018.2 1018.2 1.0
24/11:00pm 9.5 4.3 3.7 67 2.5 S 20 32 11 17 1017.9 1017.9 0.4
24/10:30pm 9.4 4.7 5.0 74 2.0 S 19 30 10 16 1017.7 1017.7 0.4
24/10:00pm 9.9 5.3 5.5 74 2.0 S 19 32 10 17 1017.2 1017.2 0.4
24/09:30pm 10.0 6.1 5.4 73 2.1 S 15 30 8 16 1016.9 1016.9 0.4
24/09:00pm 9.8 5.5 5.2 73 2.1 S 17 30 9 16 1016.6 1016.6 0.4
24/08:30pm 9.1 5.7 6.0 81 1.4 SSW 13 22 7 12 1016.1 1016.1 0.4
24/08:00pm 9.2 4.5 6.1 81 1.4 SSW 20 39 11 21 1015.8 1015.8 0.4
24/07:30pm 10.3 5.9 4.7 68 2.5 SSW 17 30 9 16 1015.3 1015.3 0.0
24/07:00pm 10.5 6.1 4.9 68 2.5 SSW 17 28 9 15 1014.9 1014.9 0.0
24/06:30pm 10.8 6.8 5.1 68 2.6 SSW 15 22 8 12 1014.7 1014.7 0.0
24/06:00pm 10.9 5.9 4.8 66 2.8 SW 20 39 11 21 1014.6 1014.6 0.0
24/05:30pm 11.8 6.6 3.6 57 3.7 SSW 20 30 11 16 1014.1 1014.1 0.0
24/05:00pm 12.1 7.1 4.8 61 3.3 SW 20 33 11 18 1013.8 1013.8 0.0
24/04:30pm 11.4 5.9 4.2 61 3.2 SSW 22 32 12 17 1013.6 1013.6 0.0
24/04:00pm 11.9 7.6 5.1 63 3.1 SSW 17 26 9 14 1013.6 1013.6 0.0
24/03:30pm 11.9 7.7 5.8 66 2.9 SW 17 30 9 16 1013.5 1013.5 0.0
24/03:00pm 12.7 7.5 5.6 62 3.3 SW 22 33 12 18 1013.3 1013.3 0.0
24/02:30pm 12.3 6.5 4.3 58 3.6 SSW 24 35 13 19 1013.2 1013.2 0.0
24/02:00pm 11.7 6.1 3.5 57 3.6 SW 22 33 12 18 1013.1 1013.1 0.0
24/01:30pm 12.2 7.0 3.4 55 3.9 SSW 20 32 11 17 1012.8 1012.8 0.0
24/01:00pm 12.7 7.5 3.6 54 4.1 SW 20 30 11 16 1012.7 1012.7 0.0
24/12:30pm 13.3 7.7 3.4 51 4.5 SSW 22 33 12 18 1012.6 1012.6 0.0
24/12:00pm 11.9 5.5 1.0 47 4.6 SSW 24 39 13 21 1012.4 1012.4 0.0
24/11:30am 11.6 6.7 4.1 60 3.4 SW 19 32 10 17 1012.1 1012.2 0.0
24/11:00am 11.8 5.8 3.6 57 3.7 SSW 24 39 13 21 1011.7 1011.7 0.0
24/10:30am 11.2 6.0 3.3 58 3.5 SSW 20 32 11 17 1011.5 1011.5 0.0
24/10:00am 11.2 5.4 4.2 62 3.1 SSW 24 35 13 19 1011.1 1011.1 0.0
24/09:30am 11.6 6.7 5.0 64 3.0 SSW 20 32 11 17 1010.9 1010.9 0.0

Other formats

Comma delimited format used in spreadsheet applications
http://www.bom.gov.au/fwo/IDV60801/IDV60801.94828.axf

JavaScript Object Notation format (JSON) in row-major order
http://www.bom.gov.au/fwo/IDV60801/IDV60801.94828.json

Data quality

Most of these data are generated automatically and are frequently updated. Quality checks on data are not normally performed. It is possible for incorrect values to appear. Refer to information at About Latest Weather Observations and please check the disclaimer before using these data.